Sunday, October 22, 2017, 8:40 PM EDT
Back to Local

KMMK, Meriden Markham Municipal Airport

Location: Meriden, CT, United States Lat: 41.517
Local Time: 8:40 PM EDT ( 0:40 GMT) Lon: -72.833
Time Zone: US/Eastern Elev: 101 ft

Show me the last for .
Show Decoded

2017-10-22 19:53 METAR KMMK 222353Z AUTO 00000KT 10SM CLR 13/09 A3038 RMK AO2 SLP288 T01280094
                 10256 20128 53006 =
2017-10-22 18:53 METAR KMMK 222253Z AUTO 00000KT 10SM CLR 14/09 A3037 RMK AO2 SLP283 T01440094 =
2017-10-22 17:53 METAR KMMK 222153Z AUTO 20003KT 10SM CLR 17/09 A3036 RMK AO2 SLP282 T01670094 =
2017-10-22 16:53 METAR KMMK 222053Z AUTO 19006KT 10SM CLR 22/08 A3036 RMK AO2 SLP281 T02220083
                 55001 =
2017-10-22 15:53 METAR KMMK 221953Z AUTO 18010KT 10SM CLR 23/07 A3036 RMK AO2 SLP280 T02330067 =
2017-10-22 14:53 METAR KMMK 221853Z AUTO 17011KT 10SM CLR 24/03 A3036 RMK AO2 SLP281 T02390028 =
2017-10-22 13:53 METAR KMMK 221753Z AUTO 16009KT 10SM CLR 25/05 A3036 RMK AO2 SLP282 T02500050
                 10250 20072 58018 =
2017-10-22 12:53 METAR KMMK 221653Z AUTO 15007KT 10SM CLR 23/07 A3039 RMK AO2 SLP289 T02330067 =
2017-10-22 11:53 METAR KMMK 221553Z AUTO 00000KT 10SM CLR 21/08 A3040 RMK AO2 SLP294 T02060078 =
2017-10-22 10:53 METAR KMMK 221453Z AUTO 00000KT 10SM CLR 17/09 A3042 RMK AO2 SLP300 T01670094
                 50002 =
2017-10-22 09:53 METAR KMMK 221353Z AUTO 00000KT 10SM CLR 13/09 A3043 RMK AO2 SLP303 T01330094 =
2017-10-22 08:53 METAR KMMK 221253Z AUTO 00000KT 10SM CLR 09/08 A3043 RMK AO2 SLP303 T00940083 =
2017-10-22 07:53 METAR KMMK 221153Z AUTO 00000KT 10SM CLR 07/07 A3041 RMK AO2 SLP298 T00720067
                 10072 20050 53016 =
2017-10-22 06:53 METAR KMMK 221053Z AUTO 00000KT 10SM CLR 07/06 A3039 RMK AO2 SLP290 T00720061 =
2017-10-22 05:53 METAR KMMK 220953Z AUTO 00000KT 8SM CLR 06/06 A3038 RMK AO2 SLP287 T00610056 =
2017-10-22 04:53 METAR KMMK 220853Z AUTO 00000KT 10SM CLR 06/06 A3036 RMK AO2 SLP282 T00560056
                 53004 =
2017-10-22 04:08 METAR KMMK 220808Z AUTO 00000KT 7SM CLR 06/06 A3036 RMK AO2 T00610056 =
2017-10-22 03:53 METAR KMMK 220753Z AUTO 00000KT 2 1/2SM BR CLR 06/06 A3036 RMK AO2 VIS 1V5
                 SLP279 T00610056 =
2017-10-22 03:06 METAR KMMK 220706Z AUTO 00000KT 5SM BR CLR 07/06 A3035 RMK AO2 T00670061 =
2017-10-22 02:53 METAR KMMK 220653Z AUTO 00000KT 1SM BR CLR 07/06 A3035 RMK AO2 SLP278 T00670061
                 =
2017-10-22 02:43 METAR KMMK 220643Z AUTO 00000KT 2SM BR CLR 07/06 A3035 RMK AO2 VIS 1V5 T00670061
                 =
2017-10-22 02:39 METAR KMMK 220639Z AUTO 00000KT 3/4SM BR CLR 06/06 A3035 RMK AO2 T00610056 =
2017-10-22 02:30 METAR KMMK 220630Z AUTO 00000KT 1 1/2SM BR CLR 07/06 A3035 RMK AO2 T00670061 =
2017-10-22 02:19 METAR KMMK 220619Z AUTO 00000KT 3SM BR CLR 07/06 A3035 RMK AO2 T00670061 =
2017-10-22 02:06 METAR KMMK 220606Z AUTO 00000KT 1 1/2SM BR CLR 07/06 A3035 RMK AO2 VIS 1V2 1/2
                 T00720061 =
2017-10-22 01:53 METAR KMMK 220553Z AUTO 00000KT 2SM BR CLR 07/06 A3035 RMK AO2 VIS 1 1/4V5
                 SLP278 T00670061 10133 20067 50001 =
2017-10-22 00:53 METAR KMMK 220453Z AUTO 00000KT 10SM CLR 08/07 A3036 RMK AO2 SLP279 T00780072
                 402670039 =
2017-10-21 23:53 METAR KMMK 220353Z AUTO 00000KT 5SM BR CLR 08/08 A3035 RMK AO2 SLP277 T00830078
                 =
2017-10-21 22:53 METAR KMMK 220253Z AUTO 00000KT 10SM CLR 09/08 A3035 RMK AO2 SLP276 T00890083
                 51007 =
2017-10-21 21:53 METAR KMMK 220153Z AUTO 00000KT 10SM CLR 10/09 A3035 RMK AO2 SLP276 T01000089 =
2017-10-21 20:53 METAR KMMK 220053Z AUTO 00000KT 10SM CLR 12/09 A3034 RMK AO2 SLP273 T01170089 =

Support USWX by starting your Amazon purchase here.